Time,TemperatureF,DewpointF,PressureIn,WindDirection,WindDirectionDegrees,WindSpeedMPH,WindSpeedGustMPH,Humidity,HourlyPrecipIn,Conditions,Clouds,dailyrainin,SolarRadiationWatts/m^2,SoftwareType,DateUTC
2013-03-07 00:12:00,37.0,27.0,30.38,NNW,341,7.0,16.0,68,0.00,,,0.04,0.000000,,2013-03-07 05:12:00,
2013-03-07 00:22:00,37.0,27.0,30.38,NNW,341,7.0,16.0,68,0.00,,,0.04,0.000000,,2013-03-07 05:22:00,
2013-03-07 00:32:00,37.0,27.0,30.38,NNW,341,7.0,16.0,68,0.00,,,0.04,0.000000,,2013-03-07 05:32:00,
2013-03-07 00:42:00,37.0,27.0,30.38,NNW,341,7.0,16.0,68,0.00,,,0.04,0.000000,,2013-03-07 05:42:00,
2013-03-07 01:11:00,35.0,26.0,30.39,NNW,333,7.0,16.0,70,0.00,,,0.04,0.000000,,2013-03-07 06:11:00,
2013-03-07 01:22:00,35.0,26.0,30.39,NNW,333,7.0,16.0,70,0.00,,,0.04,0.000000,,2013-03-07 06:22:00,
2013-03-07 01:32:00,35.0,26.0,30.39,NNW,333,7.0,16.0,70,0.00,,,0.04,0.000000,,2013-03-07 06:32:00,
2013-03-07 01:42:00,35.0,26.0,30.39,NNW,333,7.0,16.0,70,0.00,,,0.04,0.000000,,2013-03-07 06:42:00,
2013-03-07 02:11:00,33.0,26.0,30.41,NNW,332,6.0,14.0,76,0.00,,,0.04,0.000000,,2013-03-07 07:11:00,
2013-03-07 02:22:00,33.0,26.0,30.41,NNW,332,6.0,14.0,76,0.00,,,0.04,0.000000,,2013-03-07 07:22:00,
2013-03-07 02:32:00,33.0,26.0,30.41,NNW,332,6.0,14.0,76,0.00,,,0.04,0.000000,,2013-03-07 07:32:00,
2013-03-07 02:43:00,33.0,26.0,30.41,NNW,332,6.0,14.0,76,0.00,,,0.04,0.000000,,2013-03-07 07:43:00,
2013-03-07 03:12:00,34.0,28.0,30.40,NW,325,7.0,13.0,78,0.00,,,0.04,0.000000,,2013-03-07 08:12:00,
2013-03-07 03:23:00,34.0,28.0,30.40,NW,325,7.0,13.0,78,0.00,,,0.04,0.000000,,2013-03-07 08:23:00,
2013-03-07 03:34:00,34.0,28.0,30.40,NW,325,7.0,13.0,78,0.00,,,0.04,0.000000,,2013-03-07 08:34:00,
2013-03-07 03:44:00,34.0,28.0,30.40,NW,325,7.0,13.0,78,0.00,,,0.04,0.000000,,2013-03-07 08:44:00,
2013-03-07 04:14:00,32.0,27.0,30.40,NW,309,5.0,13.0,80,0.00,,,0.02,0.000000,,2013-03-07 09:14:00,
2013-03-07 04:33:00,32.0,27.0,30.40,NW,309,5.0,13.0,80,0.00,,,0.02,0.000000,,2013-03-07 09:33:00,
2013-03-07 04:43:00,32.0,27.0,30.40,NW,309,5.0,13.0,80,0.00,,,0.02,0.000000,,2013-03-07 09:43:00,
2013-03-07 05:14:00,32.0,28.0,30.43,NW,326,6.0,12.0,86,0.00,,,0.00,0.000000,,2013-03-07 10:14:00,
2013-03-07 05:24:00,32.0,28.0,30.43,NW,326,6.0,12.0,86,0.00,,,0.00,0.000000,,2013-03-07 10:24:00,
2013-03-07 05:33:00,32.0,28.0,30.43,NW,326,6.0,12.0,86,0.00,,,0.00,0.000000,,2013-03-07 10:33:00,
2013-03-07 05:43:00,32.0,28.0,30.43,NW,326,6.0,12.0,86,0.00,,,0.00,0.000000,,2013-03-07 10:43:00,
2013-03-07 06:12:00,33.0,29.0,30.45,NW,323,6.0,14.0,84,0.00,,,0.00,0.000000,,2013-03-07 11:12:00,
2013-03-07 06:23:00,33.0,29.0,30.45,NW,323,6.0,14.0,84,0.00,,,0.00,0.000000,,2013-03-07 11:23:00,
2013-03-07 06:33:00,33.0,29.0,30.45,NW,323,6.0,14.0,84,0.00,,,0.00,0.000000,,2013-03-07 11:33:00,
2013-03-07 06:43:00,33.0,29.0,30.45,NW,323,6.0,14.0,84,0.00,,,0.00,0.000000,,2013-03-07 11:43:00,
2013-03-07 07:13:00,33.0,28.0,30.48,NW,310,6.0,15.0,82,0.00,,,0.00,0.000000,,2013-03-07 12:13:00,
2013-03-07 07:23:00,33.0,28.0,30.48,NW,310,6.0,15.0,82,0.00,,,0.00,0.000000,,2013-03-07 12:23:00,
2013-03-07 07:43:00,33.0,28.0,30.48,NW,310,6.0,15.0,82,0.00,,,0.00,0.000000,,2013-03-07 12:43:00,
2013-03-07 08:13:00,34.0,28.0,30.51,NNW,328,7.0,13.0,78,0.00,,,0.00,27.000000,,2013-03-07 13:13:00,
2013-03-07 08:23:00,34.0,28.0,30.51,NNW,328,7.0,13.0,78,0.00,,,0.00,27.000000,,2013-03-07 13:23:00,
2013-03-07 08:33:00,34.0,28.0,30.51,NNW,328,7.0,13.0,78,0.00,,,0.00,27.000000,,2013-03-07 13:33:00,
2013-03-07 08:42:00,34.0,28.0,30.51,NNW,328,7.0,13.0,78,0.00,,,0.00,27.000000,,2013-03-07 13:42:00,
2013-03-07 09:12:00,40.0,28.0,30.51,NNW,333,8.0,17.0,61,0.00,,,0.00,143.000000,,2013-03-07 14:12:00,
2013-03-07 09:23:00,40.0,28.0,30.51,NNW,333,8.0,17.0,61,0.00,,,0.00,143.000000,,2013-03-07 14:23:00,
2013-03-07 09:33:00,40.0,28.0,30.51,NNW,333,8.0,17.0,61,0.00,,,0.00,143.000000,,2013-03-07 14:33:00,
2013-03-07 09:42:00,40.0,28.0,30.51,NNW,333,8.0,17.0,61,0.00,,,0.00,143.000000,,2013-03-07 14:42:00,
2013-03-07 10:13:00,48.0,29.0,30.51,NNE,30,6.0,19.0,47,0.00,,,0.00,562.000000,,2013-03-07 15:13:00,
2013-03-07 10:33:00,48.0,29.0,30.51,NNE,30,6.0,19.0,47,0.00,,,0.00,562.000000,,2013-03-07 15:33:00,
2013-03-07 10:42:00,48.0,29.0,30.51,NNE,30,6.0,19.0,47,0.00,,,0.00,562.000000,,2013-03-07 15:42:00,
2013-03-07 11:13:00,50.0,27.0,30.50,North,359,6.0,16.0,40,0.00,,,0.00,772.000000,,2013-03-07 16:13:00,
2013-03-07 11:24:00,50.0,27.0,30.50,North,359,6.0,16.0,40,0.00,,,0.00,772.000000,,2013-03-07 16:24:00,
2013-03-07 11:33:00,50.0,27.0,30.50,North,359,6.0,16.0,40,0.00,,,0.00,772.000000,,2013-03-07 16:33:00,
2013-03-07 11:43:00,50.0,27.0,30.50,North,359,6.0,16.0,40,0.00,,,0.00,772.000000,,2013-03-07 16:43:00,
2013-03-07 12:12:00,53.0,27.0,30.49,WNW,302,8.0,17.0,36,0.00,,,0.00,935.000000,,2013-03-07 17:12:00,
2013-03-07 12:23:00,53.0,27.0,30.49,WNW,302,8.0,17.0,36,0.00,,,0.00,935.000000,,2013-03-07 17:23:00,
2013-03-07 12:33:00,53.0,27.0,30.49,WNW,302,8.0,17.0,36,0.00,,,0.00,935.000000,,2013-03-07 17:33:00,
2013-03-07 12:43:00,53.0,27.0,30.49,WNW,302,8.0,17.0,36,0.00,,,0.00,935.000000,,2013-03-07 17:43:00,
2013-03-07 13:13:00,53.0,26.0,30.46,NNW,330,6.0,16.0,35,0.00,,,0.00,1004.000000,,2013-03-07 18:13:00,
2013-03-07 13:22:00,53.0,26.0,30.46,NNW,330,6.0,16.0,35,0.00,,,0.00,1004.000000,,2013-03-07 18:22:00,
2013-03-07 13:32:00,53.0,26.0,30.46,NNW,330,6.0,16.0,35,0.00,,,0.00,1004.000000,,2013-03-07 18:32:00,
2013-03-07 13:42:00,53.0,26.0,30.46,NNW,330,6.0,16.0,35,0.00,,,0.00,1004.000000,,2013-03-07 18:42:00,
2013-03-07 14:12:00,57.0,27.0,30.44,NW,313,6.0,21.0,32,0.00,,,0.00,985.000000,,2013-03-07 19:12:00,
2013-03-07 14:24:00,57.0,27.0,30.44,NW,313,6.0,21.0,32,0.00,,,0.00,985.000000,,2013-03-07 19:24:00,
2013-03-07 14:35:00,57.0,27.0,30.44,NW,313,6.0,21.0,32,0.00,,,0.00,985.000000,,2013-03-07 19:35:00,
2013-03-07 14:43:00,57.0,27.0,30.44,NW,313,6.0,21.0,32,0.00,,,0.00,985.000000,,2013-03-07 19:43:00,
2013-03-07 15:14:00,58.0,27.0,30.43,North,349,9.0,16.0,30,0.00,,,0.00,871.000000,,2013-03-07 20:14:00,
2013-03-07 15:23:00,58.0,27.0,30.43,North,349,9.0,16.0,30,0.00,,,0.00,871.000000,,2013-03-07 20:23:00,
2013-03-07 15:34:00,58.0,27.0,30.43,North,349,9.0,16.0,30,0.00,,,0.00,871.000000,,2013-03-07 20:34:00,
2013-03-07 15:43:00,58.0,27.0,30.43,North,349,9.0,16.0,30,0.00,,,0.00,871.000000,,2013-03-07 20:43:00,
2013-03-07 16:13:00,59.0,27.0,30.43,NW,324,8.0,19.0,29,0.00,,,0.00,711.000000,,2013-03-07 21:13:00,
2013-03-07 16:23:00,59.0,27.0,30.43,NW,324,8.0,19.0,29,0.00,,,0.00,711.000000,,2013-03-07 21:23:00,
2013-03-07 16:33:00,59.0,27.0,30.43,NW,324,8.0,19.0,29,0.00,,,0.00,711.000000,,2013-03-07 21:33:00,
2013-03-07 16:43:00,59.0,27.0,30.43,NW,324,8.0,19.0,29,0.00,,,0.00,711.000000,,2013-03-07 21:43:00,
2013-03-07 17:12:00,56.0,26.0,30.43,NNW,332,9.0,20.0,31,0.00,,,0.00,484.000000,,2013-03-07 22:12:00,
2013-03-07 17:23:00,56.0,26.0,30.43,NNW,332,9.0,20.0,31,0.00,,,0.00,484.000000,,2013-03-07 22:23:00,
2013-03-07 17:33:00,56.0,26.0,30.43,NNW,332,9.0,20.0,31,0.00,,,0.00,484.000000,,2013-03-07 22:33:00,
2013-03-07 17:43:00,56.0,26.0,30.43,NNW,332,9.0,20.0,31,0.00,,,0.00,484.000000,,2013-03-07 22:43:00,
2013-03-07 18:13:00,53.0,25.0,30.45,NNW,343,6.0,16.0,34,0.00,,,0.00,229.000000,,2013-03-07 23:13:00,
2013-03-07 18:22:00,53.0,25.0,30.45,NNW,343,6.0,16.0,34,0.00,,,0.00,229.000000,,2013-03-07 23:22:00,
2013-03-07 18:34:00,53.0,25.0,30.45,NNW,343,6.0,16.0,34,0.00,,,0.00,229.000000,,2013-03-07 23:34:00,
2013-03-07 18:43:00,53.0,25.0,30.45,NNW,343,6.0,16.0,34,0.00,,,0.00,229.000000,,2013-03-07 23:43:00,
2013-03-07 19:13:00,46.0,27.0,30.48,NNW,347,5.0,18.0,48,0.00,,,0.00,19.000000,,2013-03-08 00:13:00,
2013-03-07 19:23:00,46.0,27.0,30.48,NNW,347,5.0,18.0,48,0.00,,,0.00,19.000000,,2013-03-08 00:23:00,
2013-03-07 19:34:00,46.0,27.0,30.48,NNW,347,5.0,18.0,48,0.00,,,0.00,19.000000,,2013-03-08 00:34:00,
2013-03-07 19:44:00,46.0,27.0,30.48,NNW,347,5.0,18.0,48,0.00,,,0.00,19.000000,,2013-03-08 00:44:00,
2013-03-07 20:12:00,42.0,28.0,30.49,North,7,3.0,10.0,58,0.00,,,0.00,0.000000,,2013-03-08 01:12:00,
2013-03-07 20:22:00,42.0,28.0,30.49,North,7,3.0,10.0,58,0.00,,,0.00,0.000000,,2013-03-08 01:22:00,
2013-03-07 20:33:00,42.0,28.0,30.49,North,7,3.0,10.0,58,0.00,,,0.00,0.000000,,2013-03-08 01:33:00,
2013-03-07 20:42:00,42.0,28.0,30.49,North,7,3.0,10.0,58,0.00,,,0.00,0.000000,,2013-03-08 01:42:00,
2013-03-07 21:12:00,43.0,30.0,30.52,NNE,22,5.0,11.0,59,0.00,,,0.00,0.000000,,2013-03-08 02:12:00,
2013-03-07 21:22:00,43.0,30.0,30.52,NNE,22,5.0,11.0,59,0.00,,,0.00,0.000000,,2013-03-08 02:22:00,
2013-03-07 21:32:00,43.0,30.0,30.52,NNE,22,5.0,11.0,59,0.00,,,0.00,0.000000,,2013-03-08 02:32:00,
2013-03-07 21:42:00,43.0,30.0,30.52,NNE,22,5.0,11.0,59,0.00,,,0.00,0.000000,,2013-03-08 02:42:00,
2013-03-07 22:12:00,41.0,26.0,30.55,NNE,23,7.0,16.0,54,0.00,,,0.00,0.000000,,2013-03-08 03:12:00,
2013-03-07 22:22:00,41.0,26.0,30.55,NNE,23,7.0,16.0,54,0.00,,,0.00,0.000000,,2013-03-08 03:22:00,
2013-03-07 22:33:00,41.0,26.0,30.55,NNE,23,7.0,16.0,54,0.00,,,0.00,0.000000,,2013-03-08 03:33:00,
2013-03-07 22:43:00,41.0,26.0,30.55,NNE,23,7.0,16.0,54,0.00,,,0.00,0.000000,,2013-03-08 03:43:00,
2013-03-07 23:12:00,39.0,27.0,30.55,North,6,4.0,14.0,61,0.00,,,0.00,0.000000,,2013-03-08 04:12:00,
2013-03-07 23:22:00,39.0,27.0,30.55,North,6,4.0,14.0,61,0.00,,,0.00,0.000000,,2013-03-08 04:22:00,
2013-03-07 23:32:00,39.0,27.0,30.55,North,6,4.0,14.0,61,0.00,,,0.00,0.000000,,2013-03-08 04:32:00,
2013-03-07 23:42:00,39.0,27.0,30.55,North,6,4.0,14.0,61,0.00,,,0.00,0.000000,,2013-03-08 04:42:00,